createdAt,value
2023-02-19T00:00:15.442Z,5.78
2023-02-19T00:05:17.729Z,5.65
2023-02-19T00:10:19.834Z,5.43
2023-02-19T00:15:22.031Z,5.30
2023-02-19T00:20:24.433Z,4.78
2023-02-19T00:25:26.569Z,4.62
2023-02-19T00:30:28.756Z,5.30
2023-02-19T00:35:34.281Z,4.13
2023-02-19T00:40:36.412Z,4.07
2023-02-19T00:45:38.603Z,5.00
2023-02-19T00:50:40.692Z,5.20
2023-02-19T00:55:43.276Z,4.50
2023-02-19T01:00:45.444Z,4.37
2023-02-19T01:05:47.561Z,4.43
2023-02-19T01:10:49.698Z,4.82
2023-02-19T01:15:52.420Z,3.67
2023-02-19T01:20:54.869Z,4.03
2023-02-19T01:25:56.962Z,3.67
2023-02-19T01:31:04.308Z,4.57
2023-02-19T01:36:07.374Z,4.50
2023-02-19T01:41:12.303Z,3.65
2023-02-19T01:46:14.555Z,5.07
2023-02-19T01:51:19.661Z,3.77
2023-02-19T01:56:23.681Z,5.05
2023-02-19T02:01:25.829Z,4.05
2023-02-19T02:06:36.471Z,3.87
2023-02-19T02:11:45.153Z,3.78
2023-02-19T02:17:11.707Z,3.80
2023-02-19T02:22:29.670Z,3.65
2023-02-19T02:28:04.786Z,4.25
2023-02-19T02:33:13.058Z,5.00
2023-02-19T02:38:17.783Z,4.37
2023-02-19T02:43:19.939Z,3.27
2023-02-19T02:48:30.214Z,2.90
2023-02-19T02:53:53.814Z,3.37
2023-02-19T02:58:58.463Z,2.90
2023-02-19T03:04:05.957Z,4.18
2023-02-19T03:09:30.197Z,3.10
2023-02-19T03:15:02.392Z,3.47
2023-02-19T03:20:10.229Z,3.15
2023-02-19T03:25:38.337Z,3.45
2023-02-19T03:30:46.322Z,3.83
2023-02-19T03:35:57.507Z,3.30
2023-02-19T03:41:11.231Z,3.80
2023-02-19T03:46:23.337Z,3.75
2023-02-19T03:51:42.229Z,3.22
2023-02-19T03:56:58.756Z,2.92
2023-02-19T04:02:08.431Z,3.67
2023-02-19T04:07:11.189Z,3.55
2023-02-19T04:12:15.745Z,4.22
2023-02-19T04:17:27.402Z,5.05
2023-02-19T04:22:30.446Z,3.62
2023-02-19T04:27:32.935Z,3.37
2023-02-19T04:32:35.053Z,2.67
2023-02-19T04:37:37.140Z,3.90
2023-02-19T04:42:39.360Z,3.92
2023-02-19T04:47:41.538Z,3.75
2023-02-19T04:52:43.705Z,4.00
2023-02-19T04:57:45.878Z,3.33
2023-02-19T05:02:48.020Z,3.37
2023-02-19T05:07:50.149Z,4.72
2023-02-19T05:12:52.497Z,2.40
2023-02-19T05:17:54.578Z,3.30
2023-02-19T05:22:57.079Z,3.72
2023-02-19T05:28:16.968Z,4.03
2023-02-19T05:33:21.056Z,3.35
2023-02-19T05:38:24.120Z,3.25
2023-02-19T05:43:26.201Z,2.17
2023-02-19T05:48:28.331Z,2.78
2023-02-19T05:53:30.978Z,3.95
2023-02-19T05:58:33.072Z,4.62
2023-02-19T06:03:35.158Z,5.43
2023-02-19T06:08:38.381Z,5.17
2023-02-19T06:13:40.507Z,6.72
2023-02-19T06:18:43.829Z,5.18
2023-02-19T06:23:45.996Z,6.15
2023-02-19T06:28:50.161Z,6.18
2023-02-19T06:33:52.364Z,6.87
2023-02-19T06:38:54.523Z,6.70
2023-02-19T06:43:59.554Z,5.93
2023-02-19T06:49:03.612Z,7.80
2023-02-19T06:54:05.872Z,7.53
2023-02-19T06:59:11.637Z,5.67
2023-02-19T07:04:14.127Z,6.80
2023-02-19T07:09:16.233Z,7.18
2023-02-19T07:14:18.382Z,5.82
2023-02-19T07:19:20.468Z,6.15
2023-02-19T07:24:22.770Z,6.57
2023-02-19T07:29:24.873Z,5.05
2023-02-19T07:34:26.984Z,4.60
2023-02-19T07:39:29.610Z,4.65
2023-02-19T07:44:31.775Z,11.38
2023-02-19T07:49:34.192Z,13.33
2023-02-19T07:54:36.279Z,13.75
2023-02-19T07:59:38.377Z,13.10
2023-02-19T08:04:40.703Z,15.88
2023-02-19T08:09:44.101Z,15.68
2023-02-19T08:14:46.241Z,9.57
2023-02-19T08:19:48.452Z,13.23
2023-02-19T08:24:50.585Z,8.55
2023-02-19T08:29:52.679Z,7.00
2023-02-19T08:34:54.813Z,5.30
2023-02-19T08:39:56.909Z,5.33
2023-02-19T08:44:59.016Z,4.50
2023-02-19T08:50:01.147Z,6.80
2023-02-19T08:55:05.420Z,5.18
2023-02-19T09:00:09.070Z,6.60
2023-02-19T09:05:12.134Z,8.37
2023-02-19T09:10:14.667Z,10.95
2023-02-19T09:15:16.925Z,10.18
2023-02-19T09:20:19.326Z,10.13
2023-02-19T09:25:21.482Z,10.32
2023-02-19T09:30:24.383Z,11.13
2023-02-19T09:35:26.663Z,9.88
2023-02-19T09:40:30.507Z,9.73
2023-02-19T09:45:34.795Z,9.43
2023-02-19T09:50:48.749Z,9.23
2023-02-19T09:55:53.056Z,10.30
2023-02-19T10:00:57.530Z,8.68
2023-02-19T10:06:27.028Z,10.77
2023-02-19T10:11:29.266Z,9.40
2023-02-19T10:16:31.601Z,10.50
2023-02-19T10:21:33.859Z,9.23
2023-02-19T10:26:36.853Z,8.95
2023-02-19T10:31:39.388Z,9.88
2023-02-19T10:36:45.278Z,11.02
2023-02-19T10:41:49.318Z,7.70
2023-02-19T10:46:55.370Z,8.40
2023-02-19T10:52:02.497Z,7.93
2023-02-19T10:57:19.718Z,9.13
2023-02-19T11:02:22.368Z,9.67
2023-02-19T11:07:24.465Z,8.35
2023-02-19T11:12:33.568Z,6.23
2023-02-19T11:17:35.935Z,6.20
2023-02-19T11:22:40.185Z,6.03
2023-02-19T11:28:08.334Z,6.70
2023-02-19T11:33:31.142Z,8.48
2023-02-19T11:38:33.290Z,7.70
2023-02-19T11:43:54.315Z,7.53
2023-02-19T11:49:19.466Z,7.30
2023-02-19T11:54:27.454Z,7.37
2023-02-19T11:59:52.218Z,6.37
2023-02-19T12:05:23.821Z,6.40
2023-02-19T12:10:31.985Z,6.60
2023-02-19T12:21:21.200Z,6.80
2023-02-19T12:26:29.720Z,7.30
2023-02-19T12:31:49.409Z,8.23
2023-02-19T12:37:16.106Z,6.72
2023-02-19T12:42:51.267Z,6.97
2023-02-19T12:48:32.328Z,6.50
2023-02-19T12:53:45.340Z,6.10
2023-02-19T12:58:53.767Z,6.17
2023-02-19T13:04:17.743Z,4.37
2023-02-19T13:09:30.799Z,4.25
2023-02-19T13:14:46.052Z,3.58
2023-02-19T13:19:52.055Z,4.60
2023-02-19T13:24:55.636Z,5.10
2023-02-19T13:30:10.452Z,3.75
2023-02-19T13:35:30.730Z,3.62
2023-02-19T13:40:39.473Z,5.17
2023-02-19T13:45:46.081Z,4.85
2023-02-19T13:50:48.334Z,3.93
2023-02-19T13:55:52.620Z,4.45
2023-02-19T14:00:55.110Z,4.10
2023-02-19T14:06:07.682Z,4.12
2023-02-19T14:11:12.357Z,4.55
2023-02-19T14:16:51.700Z,3.67
2023-02-19T14:21:54.130Z,3.95
2023-02-19T14:26:57.289Z,2.78
2023-02-19T14:32:01.216Z,1.92
2023-02-19T14:37:06.910Z,2.03
2023-02-19T14:42:21.832Z,1.93
2023-02-19T14:47:27.434Z,2.55
2023-02-19T14:52:44.840Z,2.70
2023-02-19T14:57:49.484Z,2.92
2023-02-19T15:03:00.757Z,2.10
2023-02-19T15:08:18.542Z,3.80
2023-02-19T15:13:28.298Z,4.68
2023-02-19T15:18:35.709Z,3.25
2023-02-19T15:23:38.949Z,2.17
2023-02-19T15:28:41.293Z,3.40
2023-02-19T15:33:51.291Z,5.67
2023-02-19T15:39:02.530Z,2.87
2023-02-19T15:44:17.673Z,3.25
2023-02-19T15:49:34.090Z,2.78
2023-02-19T15:55:04.389Z,2.22
2023-02-19T16:00:11.872Z,3.03
2023-02-19T16:05:22.828Z,2.15
2023-02-19T16:10:25.134Z,3.65
2023-02-19T16:15:29.748Z,4.35
2023-02-19T16:20:34.868Z,3.83
2023-02-19T16:25:44.278Z,2.40
2023-02-19T16:30:46.493Z,3.97
2023-02-19T16:35:49.778Z,4.30
2023-02-19T16:40:52.427Z,2.42
2023-02-19T16:45:54.871Z,3.85
2023-02-19T16:50:57.168Z,3.57
2023-02-19T16:55:59.987Z,3.37
2023-02-19T17:01:02.322Z,2.17
2023-02-19T17:06:05.103Z,2.40
2023-02-19T17:11:12.405Z,3.62
2023-02-19T17:16:21.561Z,2.30
2023-02-19T17:21:26.721Z,2.92
2023-02-19T17:26:30.676Z,2.37
2023-02-19T17:31:34.028Z,2.45
2023-02-19T17:36:38.092Z,4.25
2023-02-19T17:41:40.256Z,4.57
2023-02-19T17:46:43.017Z,4.35
2023-02-19T17:51:46.350Z,6.25
2023-02-19T17:56:48.647Z,5.62
2023-02-19T18:01:50.830Z,4.47
2023-02-19T18:06:53.973Z,4.63
2023-02-19T18:11:56.339Z,4.00
2023-02-19T18:16:58.915Z,3.33
2023-02-19T18:22:01.034Z,4.28
2023-02-19T18:27:03.212Z,3.95
2023-02-19T18:32:05.515Z,4.90
2023-02-19T18:37:07.640Z,5.05
2023-02-19T18:42:10.223Z,3.85
2023-02-19T18:47:12.429Z,3.67
2023-02-19T18:52:15.790Z,3.62
2023-02-19T18:57:19.261Z,3.83
2023-02-19T19:02:22.336Z,6.00
2023-02-19T19:07:24.938Z,4.22
2023-02-19T19:12:27.058Z,4.68
2023-02-19T19:17:29.178Z,5.03
2023-02-19T19:22:31.337Z,5.40
2023-02-19T19:27:33.567Z,5.05
2023-02-19T19:32:35.705Z,4.72
2023-02-19T19:37:37.885Z,7.00
2023-02-19T19:42:44.636Z,5.30
2023-02-19T19:47:48.781Z,5.80
2023-02-19T19:52:50.864Z,4.97
2023-02-19T19:57:54.635Z,6.62
2023-02-19T20:02:56.846Z,6.50
2023-02-19T20:07:59.000Z,6.03
2023-02-19T20:13:01.770Z,6.00
2023-02-19T20:18:04.060Z,6.85
2023-02-19T20:23:06.290Z,8.43
2023-02-19T20:28:08.717Z,5.75
2023-02-19T20:33:10.875Z,5.43
2023-02-19T20:38:15.707Z,4.77
2023-02-19T20:43:17.945Z,5.18
2023-02-19T20:48:20.135Z,8.38
2023-02-19T20:53:22.286Z,5.45
2023-02-19T20:58:25.494Z,4.60
2023-02-19T21:03:27.673Z,4.60
2023-02-19T21:08:29.799Z,6.32
2023-02-19T21:13:32.211Z,4.03
2023-02-19T21:18:34.471Z,4.18
2023-02-19T21:23:36.641Z,4.50
2023-02-19T21:28:40.725Z,7.70
2023-02-19T21:33:43.035Z,4.65
2023-02-19T21:38:45.132Z,4.53
2023-02-19T21:43:47.366Z,5.90
2023-02-19T21:48:55.052Z,5.70
2023-02-19T21:53:57.766Z,4.63
2023-02-19T21:58:59.979Z,4.53
2023-02-19T22:04:02.219Z,5.35
2023-02-19T22:09:04.446Z,4.12
2023-02-19T22:14:07.029Z,4.78
2023-02-19T22:19:12.117Z,5.67
2023-02-19T22:24:20.188Z,4.40
2023-02-19T22:29:24.144Z,3.35
2023-02-19T22:34:26.367Z,5.00
2023-02-19T22:39:28.525Z,5.90
2023-02-19T22:44:30.909Z,4.33
2023-02-19T22:49:33.061Z,5.07
2023-02-19T22:54:36.233Z,4.93
2023-02-19T22:59:38.457Z,5.40
2023-02-19T23:04:40.735Z,5.03
2023-02-19T23:09:43.082Z,5.07
2023-02-19T23:14:46.785Z,5.10
2023-02-19T23:19:50.852Z,3.78
2023-02-19T23:24:53.954Z,5.12
2023-02-19T23:29:57.431Z,4.93
2023-02-19T23:34:59.840Z,7.07
2023-02-19T23:40:02.005Z,5.53
2023-02-19T23:45:04.445Z,4.95
2023-02-19T23:50:07.178Z,4.03
2023-02-19T23:55:09.381Z,5.18
